Terminal Aerodrome Forecast
Issued by NWS

Home | Current Version | Previous Version | Text Only | Print | Product List | Glossary On
Versions: 1 2 3 4 5 6 7 8 9 10 11 12 13 14 15 16 17 18 19 20 21 22 23 24 25 26
000
FTUS43 KDLH 260816 AAB
TAFHIB
TAF AMD
KHIB 260816Z 2608/2706 30004KT 1 1/2SM -SN FEW006 OVC023
     FM260930 31004KT 6SM -SN BR SCT008 OVC015
      TEMPO 2610/2612 5SM -SN BR BKN008 OVC015
     FM261200 34003KT 6SM -SN SCT015 BKN035
     FM261800 32011KT P6SM SCT050
     FM270000 VRB03KT P6SM SCT050 SCT100=

USA.gov is the U.S. government's official web portal to all federal, state and local government web resources and services.